sensor_id;sensor_type;location;lat;lon;timestamp;temperature;humidity
70336;SHT31;57756;47.408;18.940;2022-10-24T00:02:05;14.50;95.70
70336;SHT31;57756;47.408;18.940;2022-10-24T00:04:35;14.51;95.86
70336;SHT31;57756;47.408;18.940;2022-10-24T00:07:01;14.51;95.79
70336;SHT31;57756;47.408;18.940;2022-10-24T00:09:27;14.57;95.78
70336;SHT31;57756;47.408;18.940;2022-10-24T00:11:52;14.55;95.58
70336;SHT31;57756;47.408;18.940;2022-10-24T00:14:18;14.51;95.80
70336;SHT31;57756;47.408;18.940;2022-10-24T00:16:43;14.53;95.66
70336;SHT31;57756;47.408;18.940;2022-10-24T00:19:09;14.55;95.82
70336;SHT31;57756;47.408;18.940;2022-10-24T00:21:34;14.53;95.78
70336;SHT31;57756;47.408;18.940;2022-10-24T00:24:00;14.55;95.61
70336;SHT31;57756;47.408;18.940;2022-10-24T00:26:25;14.51;95.63
70336;SHT31;57756;47.408;18.940;2022-10-24T00:28:51;14.50;95.76
70336;SHT31;57756;47.408;18.940;2022-10-24T00:31:18;14.50;95.74
70336;SHT31;57756;47.408;18.940;2022-10-24T00:33:44;14.50;95.71
70336;SHT31;57756;47.408;18.940;2022-10-24T00:36:15;14.51;95.79
70336;SHT31;57756;47.408;18.940;2022-10-24T00:38:41;14.55;95.82
70336;SHT31;57756;47.408;18.940;2022-10-24T00:41:07;14.47;95.86
70336;SHT31;57756;47.408;18.940;2022-10-24T00:43:32;14.50;95.73
70336;SHT31;57756;47.408;18.940;2022-10-24T00:46:00;14.51;95.78
70336;SHT31;57756;47.408;18.940;2022-10-24T00:53:45;14.55;95.49
70336;SHT31;57756;47.408;18.940;2022-10-24T00:56:13;14.53;95.54
70336;SHT31;57756;47.408;18.940;2022-10-24T00:58:42;14.48;95.60
70336;SHT31;57756;47.408;18.940;2022-10-24T01:01:08;14.47;95.38
70336;SHT31;57756;47.408;18.940;2022-10-24T01:03:34;14.47;95.48
70336;SHT31;57756;47.408;18.940;2022-10-24T01:12:38;14.34;95.64
70336;SHT31;57756;47.408;18.940;2022-10-24T01:17:41;14.29;95.90
70336;SHT31;57756;47.408;18.940;2022-10-24T01:23:22;14.32;95.71
70336;SHT31;57756;47.408;18.940;2022-10-24T01:31:32;14.30;95.75
70336;SHT31;57756;47.408;18.940;2022-10-24T01:34:06;14.28;95.78
70336;SHT31;57756;47.408;18.940;2022-10-24T01:36:50;14.32;95.50
70336;SHT31;57756;47.408;18.940;2022-10-24T01:39:19;14.29;95.61
70336;SHT31;57756;47.408;18.940;2022-10-24T01:41:46;14.26;95.68
70336;SHT31;57756;47.408;18.940;2022-10-24T01:44:17;14.23;95.73
70336;SHT31;57756;47.408;18.940;2022-10-24T01:46:54;14.25;95.64
70336;SHT31;57756;47.408;18.940;2022-10-24T01:49:26;14.20;95.75
70336;SHT31;57756;47.408;18.940;2022-10-24T01:51:56;14.22;95.64
70336;SHT31;57756;47.408;18.940;2022-10-24T01:54:23;14.22;95.63
70336;SHT31;57756;47.408;18.940;2022-10-24T01:56:50;14.19;95.67
70336;SHT31;57756;47.408;18.940;2022-10-24T02:01:51;14.19;95.64
70336;SHT31;57756;47.408;18.940;2022-10-24T02:04:19;14.19;95.62
70336;SHT31;57756;47.408;18.940;2022-10-24T02:06:47;14.16;95.52
70336;SHT31;57756;47.408;18.940;2022-10-24T02:09:15;14.18;95.49
70336;SHT31;57756;47.408;18.940;2022-10-24T02:11:43;14.15;95.76
70336;SHT31;57756;47.408;18.940;2022-10-24T02:14:17;14.12;95.66
70336;SHT31;57756;47.408;18.940;2022-10-24T02:16:43;14.12;95.56
70336;SHT31;57756;47.408;18.940;2022-10-24T02:19:09;14.18;95.41
70336;SHT31;57756;47.408;18.940;2022-10-24T02:21:52;14.15;95.34
70336;SHT31;57756;47.408;18.940;2022-10-24T02:24:25;14.05;95.67
70336;SHT31;57756;47.408;18.940;2022-10-24T02:27:08;14.02;95.79
70336;SHT31;57756;47.408;18.940;2022-10-24T02:29:42;14.08;95.52
70336;SHT31;57756;47.408;18.940;2022-10-24T02:32:14;14.06;95.52
70336;SHT31;57756;47.408;18.940;2022-10-24T02:34:41;14.06;95.64
70336;SHT31;57756;47.408;18.940;2022-10-24T02:37:08;14.06;95.62
70336;SHT31;57756;47.408;18.940;2022-10-24T02:39:36;14.06;95.40
70336;SHT31;57756;47.408;18.940;2022-10-24T02:42:04;14.05;95.56
70336;SHT31;57756;47.408;18.940;2022-10-24T02:44:31;14.08;95.37
70336;SHT31;57756;47.408;18.940;2022-10-24T02:47:00;14.05;95.53
70336;SHT31;57756;47.408;18.940;2022-10-24T02:49:25;14.05;95.54
70336;SHT31;57756;47.408;18.940;2022-10-24T02:51:52;14.02;95.71
70336;SHT31;57756;47.408;18.940;2022-10-24T02:54:18;14.04;95.60
70336;SHT31;57756;47.408;18.940;2022-10-24T02:56:47;14.05;95.51
70336;SHT31;57756;47.408;18.940;2022-10-24T02:59:13;14.06;95.66
70336;SHT31;57756;47.408;18.940;2022-10-24T03:01:39;14.05;95.56
70336;SHT31;57756;47.408;18.940;2022-10-24T03:04:04;13.98;95.68
70336;SHT31;57756;47.408;18.940;2022-10-24T03:06:30;14.04;95.64
70336;SHT31;57756;47.408;18.940;2022-10-24T03:08:55;13.98;95.71
70336;SHT31;57756;47.408;18.940;2022-10-24T03:11:21;13.99;95.64
70336;SHT31;57756;47.408;18.940;2022-10-24T03:13:47;13.94;95.73
70336;SHT31;57756;47.408;18.940;2022-10-24T03:16:12;13.95;95.66
70336;SHT31;57756;47.408;18.940;2022-10-24T03:18:38;13.89;95.92
70336;SHT31;57756;47.408;18.940;2022-10-24T03:21:03;13.94;95.81
70336;SHT31;57756;47.408;18.940;2022-10-24T03:23:29;13.92;95.76
70336;SHT31;57756;47.408;18.940;2022-10-24T03:25:56;13.97;95.66
70336;SHT31;57756;47.408;18.940;2022-10-24T03:28:21;13.92;95.82
70336;SHT31;57756;47.408;18.940;2022-10-24T03:30:47;13.89;95.79
70336;SHT31;57756;47.408;18.940;2022-10-24T03:33:12;13.94;95.63
70336;SHT31;57756;47.408;18.940;2022-10-24T03:35:38;13.89;95.87
70336;SHT31;57756;47.408;18.940;2022-10-24T03:38:03;13.86;95.90
70336;SHT31;57756;47.408;18.940;2022-10-24T03:40:35;13.82;95.98
70336;SHT31;57756;47.408;18.940;2022-10-24T03:43:00;13.79;96.06
70336;SHT31;57756;47.408;18.940;2022-10-24T03:45:26;13.82;95.88
70336;SHT31;57756;47.408;18.940;2022-10-24T03:47:51;13.81;95.96
70336;SHT31;57756;47.408;18.940;2022-10-24T03:50:17;13.85;95.67
70336;SHT31;57756;47.408;18.940;2022-10-24T03:52:42;13.78;95.76
70336;SHT31;57756;47.408;18.940;2022-10-24T03:55:09;13.82;95.71
70336;SHT31;57756;47.408;18.940;2022-10-24T03:57:34;13.85;95.70
70336;SHT31;57756;47.408;18.940;2022-10-24T04:00:00;13.81;95.64
70336;SHT31;57756;47.408;18.940;2022-10-24T04:02:25;13.85;95.54
70336;SHT31;57756;47.408;18.940;2022-10-24T04:04:51;13.78;95.53
70336;SHT31;57756;47.408;18.940;2022-10-24T04:07:16;13.75;95.72
70336;SHT31;57756;47.408;18.940;2022-10-24T04:09:42;13.74;95.75
70336;SHT31;57756;47.408;18.940;2022-10-24T04:12:07;13.72;95.83
70336;SHT31;57756;47.408;18.940;2022-10-24T04:14:33;13.72;95.89
70336;SHT31;57756;47.408;18.940;2022-10-24T04:16:58;13.74;95.84
70336;SHT31;57756;47.408;18.940;2022-10-24T04:19:24;13.72;95.89
70336;SHT31;57756;47.408;18.940;2022-10-24T04:21:49;13.74;95.70
70336;SHT31;57756;47.408;18.940;2022-10-24T04:24:15;13.74;95.53
70336;SHT31;57756;47.408;18.940;2022-10-24T04:26:41;13.74;95.46
70336;SHT31;57756;47.408;18.940;2022-10-24T04:29:06;13.72;95.59
70336;SHT31;57756;47.408;18.940;2022-10-24T04:31:32;13.71;95.52
70336;SHT31;57756;47.408;18.940;2022-10-24T04:33:57;13.70;95.52
70336;SHT31;57756;47.408;18.940;2022-10-24T04:36:23;13.65;95.62
70336;SHT31;57756;47.408;18.940;2022-10-24T04:38:48;13.70;95.64
70336;SHT31;57756;47.408;18.940;2022-10-24T04:41:14;13.67;95.57
70336;SHT31;57756;47.408;18.940;2022-10-24T04:43:40;13.68;95.73
70336;SHT31;57756;47.408;18.940;2022-10-24T04:46:06;13.65;95.65
70336;SHT31;57756;47.408;18.940;2022-10-24T04:48:31;13.64;95.72
70336;SHT31;57756;47.408;18.940;2022-10-24T04:50:57;13.64;95.74
70336;SHT31;57756;47.408;18.940;2022-10-24T04:53:22;13.62;95.77
70336;SHT31;57756;47.408;18.940;2022-10-24T04:55:48;13.61;95.84
70336;SHT31;57756;47.408;18.940;2022-10-24T04:58:14;13.62;95.74
70336;SHT31;57756;47.408;18.940;2022-10-24T05:00:39;13.58;95.94
70336;SHT31;57756;47.408;18.940;2022-10-24T05:03:07;13.57;96.16
70336;SHT31;57756;47.408;18.940;2022-10-24T05:05:32;13.58;96.07
70336;SHT31;57756;47.408;18.940;2022-10-24T05:07:58;13.61;95.88
70336;SHT31;57756;47.408;18.940;2022-10-24T05:10:23;13.57;96.09
70336;SHT31;57756;47.408;18.940;2022-10-24T05:12:49;13.60;95.97
70336;SHT31;57756;47.408;18.940;2022-10-24T05:15:14;13.58;95.97
70336;SHT31;57756;47.408;18.940;2022-10-24T05:17:40;13.57;95.93
70336;SHT31;57756;47.408;18.940;2022-10-24T05:20:07;13.55;95.83
70336;SHT31;57756;47.408;18.940;2022-10-24T05:22:32;13.60;95.82
70336;SHT31;57756;47.408;18.940;2022-10-24T05:24:58;13.60;95.58
70336;SHT31;57756;47.408;18.940;2022-10-24T05:27:25;13.58;95.77
70336;SHT31;57756;47.408;18.940;2022-10-24T05:29:51;13.57;95.77
70336;SHT31;57756;47.408;18.940;2022-10-24T05:32:17;13.61;95.61
70336;SHT31;57756;47.408;18.940;2022-10-24T05:34:43;13.54;95.79
70336;SHT31;57756;47.408;18.940;2022-10-24T05:37:08;13.55;95.75
70336;SHT31;57756;47.408;18.940;2022-10-24T05:39:34;13.58;95.68
70336;SHT31;57756;47.408;18.940;2022-10-24T05:42:00;13.64;95.38
70336;SHT31;57756;47.408;18.940;2022-10-24T05:44:26;13.62;95.44
70336;SHT31;57756;47.408;18.940;2022-10-24T05:46:51;13.60;95.42
70336;SHT31;57756;47.408;18.940;2022-10-24T05:49:17;13.57;95.43
70336;SHT31;57756;47.408;18.940;2022-10-24T05:51:42;13.64;95.28
70336;SHT31;57756;47.408;18.940;2022-10-24T05:54:08;13.64;95.02
70336;SHT31;57756;47.408;18.940;2022-10-24T05:56:33;13.61;95.21
70336;SHT31;57756;47.408;18.940;2022-10-24T05:58:59;13.64;95.09
70336;SHT31;57756;47.408;18.940;2022-10-24T06:01:24;13.62;95.32
70336;SHT31;57756;47.408;18.940;2022-10-24T06:03:50;13.61;95.45
70336;SHT31;57756;47.408;18.940;2022-10-24T06:06:16;13.61;95.49
70336;SHT31;57756;47.408;18.940;2022-10-24T06:08:41;13.67;94.96
70336;SHT31;57756;47.408;18.940;2022-10-24T06:11:09;13.68;94.93
70336;SHT31;57756;47.408;18.940;2022-10-24T06:13:35;13.71;94.92
70336;SHT31;57756;47.408;18.940;2022-10-24T06:16:00;13.72;94.63
70336;SHT31;57756;47.408;18.940;2022-10-24T06:18:26;13.72;94.55
70336;SHT31;57756;47.408;18.940;2022-10-24T06:20:52;13.77;94.68
70336;SHT31;57756;47.408;18.940;2022-10-24T06:23:18;13.79;94.48
70336;SHT31;57756;47.408;18.940;2022-10-24T06:25:44;13.85;94.49
70336;SHT31;57756;47.408;18.940;2022-10-24T06:28:09;13.88;94.17
70336;SHT31;57756;47.408;18.940;2022-10-24T06:30:38;13.85;94.40
70336;SHT31;57756;47.408;18.940;2022-10-24T06:33:04;13.88;94.36
70336;SHT31;57756;47.408;18.940;2022-10-24T06:35:29;13.79;94.37
70336;SHT31;57756;47.408;18.940;2022-10-24T06:37:55;13.82;94.61
70336;SHT31;57756;47.408;18.940;2022-10-24T06:40:20;13.89;94.48
70336;SHT31;57756;47.408;18.940;2022-10-24T06:42:46;13.88;94.71
70336;SHT31;57756;47.408;18.940;2022-10-24T06:45:12;13.99;94.38
70336;SHT31;57756;47.408;18.940;2022-10-24T06:47:37;14.05;94.32
70336;SHT31;57756;47.408;18.940;2022-10-24T06:50:04;14.06;93.77
70336;SHT31;57756;47.408;18.940;2022-10-24T06:52:30;13.99;93.87
70336;SHT31;57756;47.408;18.940;2022-10-24T06:54:58;13.99;93.89
70336;SHT31;57756;47.408;18.940;2022-10-24T06:57:23;14.01;93.61
70336;SHT31;57756;47.408;18.940;2022-10-24T06:59:49;14.02;93.57
70336;SHT31;57756;47.408;18.940;2022-10-24T07:02:15;13.94;93.97
70336;SHT31;57756;47.408;18.940;2022-10-24T07:04:41;13.99;93.85
70336;SHT31;57756;47.408;18.940;2022-10-24T07:07:11;14.05;93.47
70336;SHT31;57756;47.408;18.940;2022-10-24T07:09:37;14.06;93.76
70336;SHT31;57756;47.408;18.940;2022-10-24T07:12:03;14.06;93.54
70336;SHT31;57756;47.408;18.940;2022-10-24T07:14:28;14.06;93.74
70336;SHT31;57756;47.408;18.940;2022-10-24T07:16:54;14.12;93.79
70336;SHT31;57756;47.408;18.940;2022-10-24T07:19:19;14.13;93.81
70336;SHT31;57756;47.408;18.940;2022-10-24T07:21:45;14.12;93.28
70336;SHT31;57756;47.408;18.940;2022-10-24T07:24:11;14.13;93.23
70336;SHT31;57756;47.408;18.940;2022-10-24T07:26:37;14.12;93.63
70336;SHT31;57756;47.408;18.940;2022-10-24T07:29:03;14.12;93.32
70336;SHT31;57756;47.408;18.940;2022-10-24T07:31:32;14.19;93.41
70336;SHT31;57756;47.408;18.940;2022-10-24T07:34:00;14.19;93.66
70336;SHT31;57756;47.408;18.940;2022-10-24T07:36:26;14.23;93.35
70336;SHT31;57756;47.408;18.940;2022-10-24T07:38:54;14.29;93.25
70336;SHT31;57756;47.408;18.940;2022-10-24T07:41:21;14.30;93.53
70336;SHT31;57756;47.408;18.940;2022-10-24T07:43:48;14.22;93.61
70336;SHT31;57756;47.408;18.940;2022-10-24T07:46:16;14.28;93.34
70336;SHT31;57756;47.408;18.940;2022-10-24T07:48:42;14.19;93.40
70336;SHT31;57756;47.408;18.940;2022-10-24T07:51:10;14.18;93.75
70336;SHT31;57756;47.408;18.940;2022-10-24T07:53:35;14.22;93.69
70336;SHT31;57756;47.408;18.940;2022-10-24T07:56:02;14.20;93.66
70336;SHT31;57756;47.408;18.940;2022-10-24T07:58:31;14.19;93.60
70336;SHT31;57756;47.408;18.940;2022-10-24T08:01:04;14.16;93.73
70336;SHT31;57756;47.408;18.940;2022-10-24T08:03:30;14.18;93.93
70336;SHT31;57756;47.408;18.940;2022-10-24T08:05:56;14.15;94.01
70336;SHT31;57756;47.408;18.940;2022-10-24T08:08:22;14.13;94.09
70336;SHT31;57756;47.408;18.940;2022-10-24T08:10:47;14.06;94.21
70336;SHT31;57756;47.408;18.940;2022-10-24T08:13:12;14.04;94.47
70336;SHT31;57756;47.408;18.940;2022-10-24T08:15:38;14.05;94.47
70336;SHT31;57756;47.408;18.940;2022-10-24T08:18:04;14.12;94.38
70336;SHT31;57756;47.408;18.940;2022-10-24T08:20:29;14.16;94.28
70336;SHT31;57756;47.408;18.940;2022-10-24T08:22:55;14.18;94.03
70336;SHT31;57756;47.408;18.940;2022-10-24T08:25:20;14.25;93.76
70336;SHT31;57756;47.408;18.940;2022-10-24T08:27:46;14.28;93.80
70336;SHT31;57756;47.408;18.940;2022-10-24T08:30:12;14.29;93.71
70336;SHT31;57756;47.408;18.940;2022-10-24T08:32:37;14.29;93.68
70336;SHT31;57756;47.408;18.940;2022-10-24T08:35:04;14.30;93.94
70336;SHT31;57756;47.408;18.940;2022-10-24T08:37:30;14.34;93.87
70336;SHT31;57756;47.408;18.940;2022-10-24T08:39:55;14.33;94.12
70336;SHT31;57756;47.408;18.940;2022-10-24T08:42:22;14.34;94.13
70336;SHT31;57756;47.408;18.940;2022-10-24T08:44:49;14.40;93.83
70336;SHT31;57756;47.408;18.940;2022-10-24T08:47:39;14.44;93.73
70336;SHT31;57756;47.408;18.940;2022-10-24T08:50:27;14.46;93.69
70336;SHT31;57756;47.408;18.940;2022-10-24T08:55:42;14.51;93.32
70336;SHT31;57756;47.408;18.940;2022-10-24T08:58:33;14.48;93.57
70336;SHT31;57756;47.408;18.940;2022-10-24T09:01:03;14.48;93.87
70336;SHT31;57756;47.408;18.940;2022-10-24T09:03:48;14.46;93.67
70336;SHT31;57756;47.408;18.940;2022-10-24T09:06:23;14.59;93.24
70336;SHT31;57756;47.408;18.940;2022-10-24T09:08:52;14.57;93.16
70336;SHT31;57756;47.408;18.940;2022-10-24T09:14:14;14.55;93.23
70336;SHT31;57756;47.408;18.940;2022-10-24T09:16:42;14.55;93.26
70336;SHT31;57756;47.408;18.940;2022-10-24T09:19:12;14.55;93.23
70336;SHT31;57756;47.408;18.940;2022-10-24T09:21:39;14.53;92.93
70336;SHT31;57756;47.408;18.940;2022-10-24T09:24:27;14.66;92.82
70336;SHT31;57756;47.408;18.940;2022-10-24T09:26:53;14.67;92.86
70336;SHT31;57756;47.408;18.940;2022-10-24T09:29:19;14.71;92.67
70336;SHT31;57756;47.408;18.940;2022-10-24T09:31:44;14.70;92.76
70336;SHT31;57756;47.408;18.940;2022-10-24T09:34:14;14.81;92.68
70336;SHT31;57756;47.408;18.940;2022-10-24T09:36:40;14.71;92.62
70336;SHT31;57756;47.408;18.940;2022-10-24T09:39:30;14.78;92.42
70336;SHT31;57756;47.408;18.940;2022-10-24T09:41:58;14.91;92.61
70336;SHT31;57756;47.408;18.940;2022-10-24T09:44:36;14.99;92.22
70336;SHT31;57756;47.408;18.940;2022-10-24T09:47:04;15.08;91.88
70336;SHT31;57756;47.408;18.940;2022-10-24T09:49:34;15.11;91.96
70336;SHT31;57756;47.408;18.940;2022-10-24T09:57:42;15.28;91.44
70336;SHT31;57756;47.408;18.940;2022-10-24T10:00:34;15.28;91.28
70336;SHT31;57756;47.408;18.940;2022-10-24T10:03:19;15.31;91.05
70336;SHT31;57756;47.408;18.940;2022-10-24T10:05:50;15.28;91.08
70336;SHT31;57756;47.408;18.940;2022-10-24T10:08:26;15.33;91.33
70336;SHT31;57756;47.408;18.940;2022-10-24T10:13:21;15.36;91.55
70336;SHT31;57756;47.408;18.940;2022-10-24T10:15:52;15.32;91.37
70336;SHT31;57756;47.408;18.940;2022-10-24T10:18:45;15.28;91.97
70336;SHT31;57756;47.408;18.940;2022-10-24T10:21:17;15.21;91.92
70336;SHT31;57756;47.408;18.940;2022-10-24T10:23:55;15.29;92.89
70336;SHT31;57756;47.408;18.940;2022-10-24T10:26:24;15.43;92.01
70336;SHT31;57756;47.408;18.940;2022-10-24T10:28:58;15.61;91.56
70336;SHT31;57756;47.408;18.940;2022-10-24T10:31:40;15.32;91.47
70336;SHT31;57756;47.408;18.940;2022-10-24T10:45:35;15.56;90.69
70336;SHT31;57756;47.408;18.940;2022-10-24T10:51:01;15.83;89.10
70336;SHT31;57756;47.408;18.940;2022-10-24T11:04:37;15.81;89.28
70336;SHT31;57756;47.408;18.940;2022-10-24T11:10:08;16.07;89.35
70336;SHT31;57756;47.408;18.940;2022-10-24T11:12:40;16.05;88.70
70336;SHT31;57756;47.408;18.940;2022-10-24T11:17:48;16.04;88.49
70336;SHT31;57756;47.408;18.940;2022-10-24T11:22:49;15.97;88.17
70336;SHT31;57756;47.408;18.940;2022-10-24T11:25:24;15.98;88.03
70336;SHT31;57756;47.408;18.940;2022-10-24T11:33:31;16.38;88.25
70336;SHT31;57756;47.408;18.940;2022-10-24T11:36:08;16.42;87.75
70336;SHT31;57756;47.408;18.940;2022-10-24T11:38:41;16.55;87.36
70336;SHT31;57756;47.408;18.940;2022-10-24T11:41:40;16.66;86.52
70336;SHT31;57756;47.408;18.940;2022-10-24T11:49:55;16.77;85.70
70336;SHT31;57756;47.408;18.940;2022-10-24T11:52:28;16.72;85.80
70336;SHT31;57756;47.408;18.940;2022-10-24T11:57:28;16.60;86.10
70336;SHT31;57756;47.408;18.940;2022-10-24T11:59:54;16.66;86.14
70336;SHT31;57756;47.408;18.940;2022-10-24T12:05:44;16.67;86.15
70336;SHT31;57756;47.408;18.940;2022-10-24T12:11:23;16.76;86.24
70336;SHT31;57756;47.408;18.940;2022-10-24T12:19:39;16.53;85.70
70336;SHT31;57756;47.408;18.940;2022-10-24T12:22:06;16.46;86.06
70336;SHT31;57756;47.408;18.940;2022-10-24T12:24:36;16.48;85.92
70336;SHT31;57756;47.408;18.940;2022-10-24T12:32:44;16.62;85.90
70336;SHT31;57756;47.408;18.940;2022-10-24T12:38:01;16.79;86.11
70336;SHT31;57756;47.408;18.940;2022-10-24T12:40:46;16.72;85.14
70336;SHT31;57756;47.408;18.940;2022-10-24T12:51:33;17.03;85.39
70336;SHT31;57756;47.408;18.940;2022-10-24T12:56:36;16.94;85.06
70336;SHT31;57756;47.408;18.940;2022-10-24T12:59:34;16.94;84.62
70336;SHT31;57756;47.408;18.940;2022-10-24T13:21:47;16.59;85.68
70336;SHT31;57756;47.408;18.940;2022-10-24T13:24:09;16.60;85.87
70336;SHT31;57756;47.408;18.940;2022-10-24T13:26:45;16.55;86.27
70336;SHT31;57756;47.408;18.940;2022-10-24T13:31:47;16.56;86.61
70336;SHT31;57756;47.408;18.940;2022-10-24T13:34:21;16.63;86.27
70336;SHT31;57756;47.408;18.940;2022-10-24T13:36:58;16.59;85.92
70336;SHT31;57756;47.408;18.940;2022-10-24T13:39:26;16.59;86.42
70336;SHT31;57756;47.408;18.940;2022-10-24T13:41:59;16.67;86.26
70336;SHT31;57756;47.408;18.940;2022-10-24T13:44:30;16.67;86.24
70336;SHT31;57756;47.408;18.940;2022-10-24T13:49:49;16.52;86.86
70336;SHT31;57756;47.408;18.940;2022-10-24T13:52:20;16.56;86.81
70336;SHT31;57756;47.408;18.940;2022-10-24T13:54:51;16.52;87.09
70336;SHT31;57756;47.408;18.940;2022-10-24T13:57:33;16.59;86.65
70336;SHT31;57756;47.408;18.940;2022-10-24T14:00:05;16.62;86.84
70336;SHT31;57756;47.408;18.940;2022-10-24T14:02:33;16.55;87.17
70336;SHT31;57756;47.408;18.940;2022-10-24T14:05:03;16.55;86.93
70336;SHT31;57756;47.408;18.940;2022-10-24T14:07:30;16.51;87.14
70336;SHT31;57756;47.408;18.940;2022-10-24T14:10:05;16.53;86.74
70336;SHT31;57756;47.408;18.940;2022-10-24T14:12:32;16.44;86.81
70336;SHT31;57756;47.408;18.940;2022-10-24T14:14:58;16.45;87.49
70336;SHT31;57756;47.408;18.940;2022-10-24T14:17:31;16.49;86.88
70336;SHT31;57756;47.408;18.940;2022-10-24T14:22:38;16.38;88.04
70336;SHT31;57756;47.408;18.940;2022-10-24T14:25:06;16.39;88.01
70336;SHT31;57756;47.408;18.940;2022-10-24T14:27:31;16.38;88.40
70336;SHT31;57756;47.408;18.940;2022-10-24T14:30:03;16.41;88.36
70336;SHT31;57756;47.408;18.940;2022-10-24T14:32:30;16.46;87.88
70336;SHT31;57756;47.408;18.940;2022-10-24T14:34:57;16.42;87.74
70336;SHT31;57756;47.408;18.940;2022-10-24T14:37:34;16.42;88.01
70336;SHT31;57756;47.408;18.940;2022-10-24T14:40:03;16.42;87.82
70336;SHT31;57756;47.408;18.940;2022-10-24T14:42:29;16.42;88.11
70336;SHT31;57756;47.408;18.940;2022-10-24T14:44:55;16.45;87.91
70336;SHT31;57756;47.408;18.940;2022-10-24T14:47:28;16.42;88.07
70336;SHT31;57756;47.408;18.940;2022-10-24T14:49:55;16.32;87.95
70336;SHT31;57756;47.408;18.940;2022-10-24T14:52:33;16.32;88.20
70336;SHT31;57756;47.408;18.940;2022-10-24T14:57:31;16.30;88.64
70336;SHT31;57756;47.408;18.940;2022-10-24T15:00:01;16.26;88.63
70336;SHT31;57756;47.408;18.940;2022-10-24T15:02:37;16.24;88.97
70336;SHT31;57756;47.408;18.940;2022-10-24T15:05:14;16.26;88.93
70336;SHT31;57756;47.408;18.940;2022-10-24T15:07:39;16.24;89.11
70336;SHT31;57756;47.408;18.940;2022-10-24T15:12:38;16.19;89.25
70336;SHT31;57756;47.408;18.940;2022-10-24T15:18:16;16.12;89.63
70336;SHT31;57756;47.408;18.940;2022-10-24T15:20:44;16.12;89.78
70336;SHT31;57756;47.408;18.940;2022-10-24T15:23:31;16.04;89.52
70336;SHT31;57756;47.408;18.940;2022-10-24T15:31:03;16.04;89.86
70336;SHT31;57756;47.408;18.940;2022-10-24T15:33:28;16.01;89.95
70336;SHT31;57756;47.408;18.940;2022-10-24T15:35:54;15.97;90.12
70336;SHT31;57756;47.408;18.940;2022-10-24T15:38:20;15.94;90.23
70336;SHT31;57756;47.408;18.940;2022-10-24T15:40:47;15.93;90.46
70336;SHT31;57756;47.408;18.940;2022-10-24T15:43:16;15.91;90.37
70336;SHT31;57756;47.408;18.940;2022-10-24T15:45:42;15.88;90.46
70336;SHT31;57756;47.408;18.940;2022-10-24T15:48:08;15.87;90.77
70336;SHT31;57756;47.408;18.940;2022-10-24T15:50:34;15.81;90.98
70336;SHT31;57756;47.408;18.940;2022-10-24T15:53:02;15.77;91.01
70336;SHT31;57756;47.408;18.940;2022-10-24T15:55:29;15.76;90.84
70336;SHT31;57756;47.408;18.940;2022-10-24T15:57:55;15.74;90.83
70336;SHT31;57756;47.408;18.940;2022-10-24T16:00:22;15.71;90.96
70336;SHT31;57756;47.408;18.940;2022-10-24T16:02:50;15.69;91.01
70336;SHT31;57756;47.408;18.940;2022-10-24T16:05:28;15.64;91.01
70336;SHT31;57756;47.408;18.940;2022-10-24T16:07:54;15.61;91.11
70336;SHT31;57756;47.408;18.940;2022-10-24T16:10:21;15.59;91.07
70336;SHT31;57756;47.408;18.940;2022-10-24T16:12:48;15.63;91.46
70336;SHT31;57756;47.408;18.940;2022-10-24T16:15:23;15.69;91.40
70336;SHT31;57756;47.408;18.940;2022-10-24T16:17:48;15.59;91.60
70336;SHT31;57756;47.408;18.940;2022-10-24T16:20:14;15.56;91.93
70336;SHT31;57756;47.408;18.940;2022-10-24T16:22:43;15.54;91.95
70336;SHT31;57756;47.408;18.940;2022-10-24T16:25:20;15.57;91.74
70336;SHT31;57756;47.408;18.940;2022-10-24T16:27:46;15.49;91.90
70336;SHT31;57756;47.408;18.940;2022-10-24T16:30:16;15.50;92.05
70336;SHT31;57756;47.408;18.940;2022-10-24T16:32:42;15.50;92.36
70336;SHT31;57756;47.408;18.940;2022-10-24T16:35:09;15.50;92.31
70336;SHT31;57756;47.408;18.940;2022-10-24T16:37:35;15.43;92.22
70336;SHT31;57756;47.408;18.940;2022-10-24T16:40:00;15.43;91.93
70336;SHT31;57756;47.408;18.940;2022-10-24T16:42:26;15.42;92.14
70336;SHT31;57756;47.408;18.940;2022-10-24T16:44:53;15.43;92.18
70336;SHT31;57756;47.408;18.940;2022-10-24T16:47:18;15.36;92.27
70336;SHT31;57756;47.408;18.940;2022-10-24T16:49:44;15.40;92.01
70336;SHT31;57756;47.408;18.940;2022-10-24T16:52:12;15.35;92.10
70336;SHT31;57756;47.408;18.940;2022-10-24T16:54:38;15.35;92.14
70336;SHT31;57756;47.408;18.940;2022-10-24T16:57:04;15.35;92.16
70336;SHT31;57756;47.408;18.940;2022-10-24T16:59:30;15.31;92.04
70336;SHT31;57756;47.408;18.940;2022-10-24T17:01:56;15.26;92.20
70336;SHT31;57756;47.408;18.940;2022-10-24T17:04:21;15.25;92.34
70336;SHT31;57756;47.408;18.940;2022-10-24T17:06:47;15.25;92.63
70336;SHT31;57756;47.408;18.940;2022-10-24T17:09:13;15.26;92.70
70336;SHT31;57756;47.408;18.940;2022-10-24T17:11:39;15.22;92.97
70336;SHT31;57756;47.408;18.940;2022-10-24T17:14:05;15.23;92.84
70336;SHT31;57756;47.408;18.940;2022-10-24T17:16:30;15.22;92.58
70336;SHT31;57756;47.408;18.940;2022-10-24T17:18:56;15.23;92.55
70336;SHT31;57756;47.408;18.940;2022-10-24T17:21:22;15.18;92.67
70336;SHT31;57756;47.408;18.940;2022-10-24T17:23:50;15.14;92.72
70336;SHT31;57756;47.408;18.940;2022-10-24T17:26:16;15.11;92.83
70336;SHT31;57756;47.408;18.940;2022-10-24T17:28:42;15.08;92.90
70336;SHT31;57756;47.408;18.940;2022-10-24T17:31:12;15.08;92.80
70336;SHT31;57756;47.408;18.940;2022-10-24T17:33:38;14.99;92.62
70336;SHT31;57756;47.408;18.940;2022-10-24T17:36:06;14.91;92.78
70336;SHT31;57756;47.408;18.940;2022-10-24T17:38:55;14.84;92.91
70336;SHT31;57756;47.408;18.940;2022-10-24T17:41:25;14.77;93.06
70336;SHT31;57756;47.408;18.940;2022-10-24T17:43:52;14.71;93.19
70336;SHT31;57756;47.408;18.940;2022-10-24T17:46:18;14.67;93.33
70336;SHT31;57756;47.408;18.940;2022-10-24T17:48:44;14.63;93.16
70336;SHT31;57756;47.408;18.940;2022-10-24T17:51:10;14.59;93.24
70336;SHT31;57756;47.408;18.940;2022-10-24T17:53:39;14.48;93.23
70336;SHT31;57756;47.408;18.940;2022-10-24T17:56:05;14.40;93.34
70336;SHT31;57756;47.408;18.940;2022-10-24T17:58:31;14.40;93.34
70336;SHT31;57756;47.408;18.940;2022-10-24T18:00:58;14.29;93.44
70336;SHT31;57756;47.408;18.940;2022-10-24T18:03:23;14.22;93.50